Time;durP1;ratioP1;P1;durP2;ratioP2;P2;SDS_P1;SDS_P2;PMS_P1;PMS_P2;Temp;Humidity;BMP_temperature;BMP_pressure;BME280_temperature;BME280_humidity;BME280_pressure;Samples;Min_cycle;Max_cycle;Signal;HPM_P1;HPM_P2
2022/10/08 00:01:09;;;;;;;7.30;3.90;;;;;;;13.99;54.41;101323.73;117216;1189;21848;-90
2022/10/08 00:03:39;;;;;;;8.30;3.60;;;;;;;13.93;54.42;101320.78;117474;1185;21871;-88
2022/10/08 00:06:12;;;;;;;6.40;4.10;;;;;;;13.86;54.67;101315.05;117605;1185;23593;-87
2022/10/08 00:08:41;;;;;;;7.10;4.00;;;;;;;13.91;54.56;101311.80;117671;1186;21885;-88
2022/10/08 00:11:17;;;;;;;7.70;3.60;;;;;;;13.93;54.53;101314.60;117629;1185;23468;-88
2022/10/08 00:13:46;;;;;;;8.10;3.80;;;;;;;13.94;54.45;101312.30;117718;1185;21855;-88
2022/10/08 00:16:35;;;;;;;8.70;3.80;;;;;;;13.94;54.49;101312.13;117574;1185;21864;-86
2022/10/08 00:19:09;;;;;;;8.10;4.40;;;;;;;13.96;54.49;101312.45;117662;1184;21855;-87
2022/10/08 00:21:37;;;;;;;6.50;3.90;;;;;;;13.98;54.41;101312.42;117720;1185;23534;-86
2022/10/08 00:24:05;;;;;;;7.30;3.60;;;;;;;13.98;54.26;101307.84;117752;1185;22918;-87
2022/10/08 00:26:33;;;;;;;7.40;3.40;;;;;;;13.96;54.23;101307.34;117404;1186;23461;-87
2022/10/08 00:29:06;;;;;;;6.90;3.30;;;;;;;13.93;54.20;101308.44;117634;1184;23468;-88
2022/10/08 00:31:35;;;;;;;5.60;3.30;;;;;;;13.86;54.08;101306.05;117859;1184;23482;-87
2022/10/08 00:34:04;;;;;;;6.40;3.60;;;;;;;13.83;54.17;101304.84;117697;1182;21956;-88
2022/10/08 00:36:32;;;;;;;6.00;3.30;;;;;;;13.81;54.20;101299.92;117342;1187;22630;-88
2022/10/08 00:39:01;;;;;;;5.80;3.90;;;;;;;13.76;54.07;101298.73;117460;1186;21858;-89
2022/10/08 00:41:31;;;;;;;9.90;3.10;;;;;;;13.67;54.08;101295.48;117250;1189;24239;-89
2022/10/08 00:44:02;;;;;;;5.60;3.50;;;;;;;13.63;54.03;101291.99;117276;1188;22124;-88
2022/10/08 00:46:36;;;;;;;7.80;3.70;;;;;;;13.56;54.10;101290.84;117421;1186;23449;-88
2022/10/08 00:49:12;;;;;;;8.30;4.00;;;;;;;13.52;54.35;101287.52;117259;1188;23475;-89
2022/10/08 00:51:48;;;;;;;6.10;3.50;;;;;;;13.46;54.36;101286.88;117331;1187;21946;-89
2022/10/08 00:54:16;;;;;;;6.80;3.40;;;;;;;13.41;54.45;101289.20;117332;1188;21886;-89
2022/10/08 00:56:43;;;;;;;7.90;3.40;;;;;;;13.35;54.51;101287.30;117529;1185;21843;-88
2022/10/08 00:59:11;;;;;;;6.80;3.50;;;;;;;13.24;54.60;101287.41;117379;1186;21866;-91
2022/10/08 01:01:42;;;;;;;5.90;3.50;;;;;;;13.19;54.70;101285.52;117303;1187;23901;-92
2022/10/08 01:04:10;;;;;;;5.30;3.20;;;;;;;13.15;54.64;101285.38;117385;1188;21861;-91
2022/10/08 01:06:50;;;;;;;5.90;3.60;;;;;;;13.13;54.60;101282.39;117492;1186;23442;-90
2022/10/08 01:09:20;;;;;;;5.70;3.60;;;;;;;13.11;54.51;101285.75;117732;1185;21854;-90
2022/10/08 01:11:52;;;;;;;6.10;3.80;;;;;;;13.11;54.68;101284.52;117647;1184;22639;-90
2022/10/08 01:14:43;;;;;;;6.10;3.80;;;;;;;13.11;54.81;101288.21;117324;1185;21847;-87
2022/10/08 01:17:26;;;;;;;4.90;3.30;;;;;;;13.08;54.74;101287.52;117570;1185;23469;-91
2022/10/08 01:20:00;;;;;;;5.30;3.40;;;;;;;13.04;54.67;101288.27;117629;1185;21899;-90
2022/10/08 01:22:34;;;;;;;7.70;3.90;;;;;;;13.06;54.73;101286.14;117616;1184;22918;-90
2022/10/08 01:28:01;;;;;;;10.60;5.00;;;;;;;13.05;54.98;101288.79;117559;1185;23443;-89
2022/10/08 01:30:29;;;;;;;7.20;5.20;;;;;;;13.05;55.23;101284.73;117459;1185;23444;-91
2022/10/08 01:32:59;;;;;;;9.30;4.50;;;;;;;13.05;55.29;101283.67;117478;1184;22141;-90
2022/10/08 01:35:30;;;;;;;7.60;3.80;;;;;;;13.01;55.21;101286.90;117577;1185;23442;-90
2022/10/08 01:38:01;;;;;;;7.70;4.20;;;;;;;12.99;55.23;101283.39;117631;1185;22904;-90
2022/10/08 01:40:31;;;;;;;6.70;3.80;;;;;;;13.01;55.24;101281.42;117628;1185;23474;-90
2022/10/08 01:42:59;;;;;;;7.70;3.90;;;;;;;13.01;55.24;101284.61;117280;1185;21874;-90
2022/10/08 01:45:30;;;;;;;7.40;4.00;;;;;;;12.96;55.20;101284.11;117396;1187;23464;-91
2022/10/08 01:47:59;;;;;;;8.70;4.30;;;;;;;12.98;55.47;101284.61;117322;1186;22030;-89
2022/10/08 01:50:36;;;;;;;6.00;4.40;;;;;;;13.03;55.25;101287.94;117501;1184;23450;-89
2022/10/08 01:53:06;;;;;;;7.50;4.50;;;;;;;13.00;55.12;101289.55;117470;1181;21868;-90
2022/10/08 01:55:44;;;;;;;8.00;4.40;;;;;;;12.90;55.30;101290.50;117262;1185;21853;-91
2022/10/08 01:58:17;;;;;;;6.10;4.00;;;;;;;12.84;55.61;101292.13;117505;1184;21850;-90
2022/10/08 02:00:44;;;;;;;9.10;4.70;;;;;;;12.84;55.37;101291.23;117588;1184;21866;-90
2022/10/08 02:03:11;;;;;;;9.20;4.80;;;;;;;12.85;55.59;101292.45;117539;1185;23462;-89
2022/10/08 02:05:40;;;;;;;7.50;5.30;;;;;;;12.86;55.53;101290.17;117630;1185;21908;-90
2022/10/08 02:08:09;;;;;;;9.10;5.40;;;;;;;12.86;55.78;101290.16;117379;1185;22985;-89
2022/10/08 02:10:39;;;;;;;10.70;5.30;;;;;;;12.87;55.67;101294.40;117615;1184;23574;-90
2022/10/08 02:13:07;;;;;;;9.80;4.80;;;;;;;12.85;55.65;101293.52;117315;1185;21853;-90
2022/10/08 02:15:40;;;;;;;8.50;4.90;;;;;;;12.82;55.67;101292.14;117541;1185;23442;-89
2022/10/08 02:18:17;;;;;;;9.50;5.50;;;;;;;12.81;55.60;101290.74;117726;1185;23461;-88
2022/10/08 02:20:50;;;;;;;8.50;5.50;;;;;;;12.75;55.71;101292.19;117706;1180;22307;-89
2022/10/08 02:23:26;;;;;;;10.20;6.50;;;;;;;12.74;55.88;101292.20;117566;1186;21895;-88
2022/10/08 02:26:11;;;;;;;7.90;5.70;;;;;;;12.83;55.92;101294.77;117491;1185;22908;-89
2022/10/08 02:28:47;;;;;;;9.80;5.80;;;;;;;12.79;55.91;101290.40;117610;1185;21857;-88
2022/10/08 02:31:27;;;;;;;8.40;6.10;;;;;;;12.75;56.22;101287.95;117866;1185;21942;-88
2022/10/08 02:34:06;;;;;;;9.00;6.10;;;;;;;12.75;56.35;101288.31;117814;1184;21854;-89
2022/10/08 02:36:37;;;;;;;13.30;7.00;;;;;;;12.74;56.35;101287.44;117767;1184;23519;-89
2022/10/08 02:39:04;;;;;;;12.20;6.30;;;;;;;12.71;56.46;101284.29;117829;1184;21842;-90
2022/10/08 02:41:47;;;;;;;11.50;5.90;;;;;;;12.62;56.36;101286.09;117822;1185;23701;-90
2022/10/08 02:44:42;;;;;;;10.60;6.80;;;;;;;12.56;56.46;101286.50;117834;1184;23441;-91
2022/10/08 02:47:11;;;;;;;12.00;6.50;;;;;;;12.47;56.41;101288.66;117831;1186;22634;-90
2022/10/08 02:49:40;;;;;;;8.90;5.70;;;;;;;12.38;56.41;101289.23;117729;1185;22613;-91
2022/10/08 02:52:07;;;;;;;9.20;6.30;;;;;;;12.33;56.38;101290.33;117685;1185;21904;-90
2022/10/08 02:54:38;;;;;;;11.20;5.90;;;;;;;12.24;56.42;101292.11;117745;1183;23465;-91
2022/10/08 02:57:33;;;;;;;11.30;5.90;;;;;;;12.17;56.54;101286.52;117776;1182;22354;-90
2022/10/08 03:00:00;;;;;;;8.60;5.40;;;;;;;12.16;56.52;101286.34;117637;1183;22645;-89
2022/10/08 03:02:39;;;;;;;8.70;5.50;;;;;;;12.16;56.57;101290.04;117715;1185;21853;-91
2022/10/08 03:05:10;;;;;;;10.40;5.70;;;;;;;12.12;56.48;101287.96;117874;1182;21873;-90
2022/10/08 03:07:41;;;;;;;9.00;6.30;;;;;;;12.00;56.69;101286.74;117795;1185;23465;-90
2022/10/08 03:10:08;;;;;;;9.50;5.80;;;;;;;11.97;56.81;101285.86;117797;1185;23532;-90
2022/10/08 03:12:35;;;;;;;9.70;6.30;;;;;;;11.96;56.90;101284.10;117479;1186;21845;-90
2022/10/08 03:15:05;;;;;;;9.00;5.90;;;;;;;11.97;56.78;101283.39;117778;1185;23470;-90
2022/10/08 03:17:35;;;;;;;9.10;5.90;;;;;;;11.95;56.96;101283.58;117697;1185;23509;-90
2022/10/08 03:20:06;;;;;;;9.00;5.80;;;;;;;11.97;56.95;101283.05;117651;1185;24158;-90
2022/10/08 03:22:36;;;;;;;;;;;;;;;12.04;56.71;101282.54;117655;1185;23449;-89
2022/10/08 03:25:04;;;;;;;13.20;6.30;;;;;;;12.10;56.55;101280.40;117736;1185;21851;-89
2022/10/08 03:27:33;;;;;;;10.10;6.30;;;;;;;12.13;56.50;101278.09;117618;1185;23465;-90
2022/10/08 03:30:02;;;;;;;9.50;6.90;;;;;;;12.10;56.50;101278.46;117225;1187;21929;-90
2022/10/08 03:32:29;;;;;;;9.40;6.20;;;;;;;12.04;56.57;101277.95;117335;1187;24191;-90
2022/10/08 03:34:56;;;;;;;12.10;6.90;;;;;;;12.00;56.56;101278.14;117377;1187;23643;-90
2022/10/08 03:37:23;;;;;;;10.00;6.60;;;;;;;11.97;56.61;101277.07;117326;1188;23445;-90
2022/10/08 03:39:51;;;;;;;12.10;7.10;;;;;;;11.90;56.79;101280.61;117320;1187;21859;-90
2022/10/08 03:42:18;;;;;;;13.00;6.90;;;;;;;11.86;56.97;101277.80;117240;1188;21862;-90
2022/10/08 03:44:45;;;;;;;11.10;6.60;;;;;;;11.87;57.00;101275.34;117233;1188;21858;-90
2022/10/08 03:47:12;;;;;;;14.40;7.10;;;;;;;11.88;56.97;101273.59;117253;1188;21858;-89
2022/10/08 03:49:40;;;;;;;11.90;7.10;;;;;;;11.84;57.04;101274.83;117214;1187;22632;-90
2022/10/08 03:52:07;;;;;;;10.60;6.60;;;;;;;11.80;57.11;101273.09;117287;1187;21853;-90
2022/10/08 03:54:34;;;;;;;13.10;7.10;;;;;;;11.75;57.09;101272.73;117236;1188;22892;-91
2022/10/08 03:57:02;;;;;;;9.70;6.30;;;;;;;11.71;57.16;101275.04;117202;1187;23449;-92
2022/10/08 03:59:30;;;;;;;10.90;6.60;;;;;;;11.71;57.22;101278.89;117383;1186;21864;-90
2022/10/08 04:01:57;;;;;;;11.40;5.90;;;;;;;11.68;57.18;101279.64;117575;1184;23464;-89
2022/10/08 04:04:24;;;;;;;9.70;6.40;;;;;;;11.66;57.20;101280.69;117674;1185;24149;-91
2022/10/08 04:06:51;;;;;;;9.80;6.20;;;;;;;11.61;57.23;101279.45;117685;1185;23867;-90
2022/10/08 04:09:19;;;;;;;11.00;5.90;;;;;;;11.56;57.09;101280.34;117747;1184;23474;-90
2022/10/08 04:11:46;;;;;;;16.20;6.40;;;;;;;11.51;57.21;101277.90;117439;1184;22908;-90
2022/10/08 04:14:13;;;;;;;10.20;5.90;;;;;;;11.46;57.27;101279.67;117534;1185;21860;-90
2022/10/08 04:16:43;;;;;;;12.40;7.00;;;;;;;11.43;57.41;101276.50;117600;1183;23464;-91
2022/10/08 04:19:10;;;;;;;13.20;6.80;;;;;;;11.42;57.61;101272.64;117449;1186;21864;-90
2022/10/08 04:21:39;;;;;;;8.00;5.30;;;;;;;11.44;57.58;101273.70;117591;1184;23512;-90
2022/10/08 04:24:06;;;;;;;8.00;5.70;;;;;;;11.50;57.62;101271.73;117624;1185;23464;-90
2022/10/08 04:26:33;;;;;;;14.20;6.90;;;;;;;11.55;57.57;101268.39;117615;1184;21858;-91
2022/10/08 04:29:00;;;;;;;11.40;6.70;;;;;;;11.61;57.74;101274.89;117570;1185;21977;-90
2022/10/08 04:31:27;;;;;;;10.20;6.00;;;;;;;11.59;57.67;101273.13;117621;1184;23510;-90
2022/10/08 04:33:55;;;;;;;8.20;5.70;;;;;;;11.61;57.97;101272.25;117671;1185;23486;-90
2022/10/08 04:36:23;;;;;;;11.00;6.30;;;;;;;11.68;58.07;101270.31;117362;1185;21867;-87
2022/10/08 04:38:50;;;;;;;10.10;5.70;;;;;;;11.78;57.88;101272.73;117763;1185;23463;-92
2022/10/08 04:41:22;;;;;;;9.90;5.70;;;;;;;11.84;58.17;101273.24;117417;1185;21991;-93
2022/10/08 04:43:50;;;;;;;9.00;5.20;;;;;;;11.93;58.02;101271.80;117442;1186;21856;-93
2022/10/08 04:46:18;;;;;;;11.20;6.60;;;;;;;12.03;58.06;101274.06;117279;1188;21883;-93
2022/10/08 04:48:49;;;;;;;10.50;6.60;;;;;;;12.10;57.97;101275.83;117258;1188;22299;-94
2022/10/08 04:51:17;;;;;;;9.50;6.50;;;;;;;12.16;57.99;101272.97;117375;1183;22934;-93
2022/10/08 04:53:44;;;;;;;12.20;6.70;;;;;;;12.24;58.11;101271.70;117323;1186;24217;-93
2022/10/08 04:56:11;;;;;;;7.20;5.60;;;;;;;12.31;58.01;101275.55;117255;1188;21935;-94
2022/10/08 04:58:40;;;;;;;9.20;5.80;;;;;;;12.40;58.02;101276.20;117524;1186;24145;-93
2022/10/08 05:01:09;;;;;;;11.90;6.00;;;;;;;12.49;58.08;101275.63;117268;1189;24159;-95
2022/10/08 05:03:37;;;;;;;7.10;4.80;;;;;;;12.52;58.15;101273.48;117294;1187;24063;-94
2022/10/08 05:06:05;;;;;;;10.30;5.50;;;;;;;12.60;58.20;101273.27;117398;1188;21853;-92
2022/10/08 05:08:33;;;;;;;9.90;5.20;;;;;;;12.64;58.28;101271.65;117275;1187;22719;-94
2022/10/08 05:11:26;;;;;;;8.90;5.70;;;;;;;12.73;58.20;101278.29;117271;1188;21867;-94
2022/10/08 05:13:56;;;;;;;11.10;6.00;;;;;;;12.82;58.06;101284.73;117264;1188;24166;-94
2022/10/08 05:16:23;;;;;;;8.50;5.50;;;;;;;12.88;58.10;101283.81;117322;1188;21876;-93
2022/10/08 05:18:50;;;;;;;10.40;6.30;;;;;;;12.96;58.24;101283.24;117464;1186;21858;-93
2022/10/08 05:21:22;;;;;;;11.50;6.30;;;;;;;13.05;58.01;101283.16;117416;1188;22305;-95
2022/10/08 05:23:57;;;;;;;8.40;5.30;;;;;;;13.11;57.87;101282.77;117387;1189;23471;-91
2022/10/08 05:26:30;;;;;;;7.40;5.70;;;;;;;13.22;57.71;101281.97;117294;1187;21856;-92
2022/10/08 05:29:17;;;;;;;8.70;5.90;;;;;;;13.31;57.74;101279.94;117472;1187;23615;-92
2022/10/08 05:31:45;;;;;;;11.50;6.40;;;;;;;13.42;57.74;101278.11;117453;1185;21888;-92
2022/10/08 05:34:12;;;;;;;9.20;5.90;;;;;;;13.52;57.67;101280.12;117916;1189;21864;-92
2022/10/08 05:36:39;;;;;;;8.60;5.90;;;;;;;13.59;57.65;101284.83;117366;1187;22619;-93
2022/10/08 05:39:07;;;;;;;9.80;5.20;;;;;;;13.70;57.60;101282.40;117646;1185;23478;-89
2022/10/08 05:41:35;;;;;;;9.80;5.40;;;;;;;13.75;57.60;101283.58;117578;1185;24223;-88
2022/10/08 05:44:03;;;;;;;9.90;5.70;;;;;;;13.82;57.50;101280.86;117295;1181;21879;-86
2022/10/08 05:46:32;;;;;;;7.40;5.60;;;;;;;13.90;57.63;101276.73;117448;1185;22146;-86
2022/10/08 05:49:00;;;;;;;9.20;5.90;;;;;;;13.95;57.71;101275.59;117649;1185;21858;-86
2022/10/08 05:51:29;;;;;;;12.10;5.60;;;;;;;14.04;57.71;101273.55;117673;1184;23486;-87
2022/10/08 05:53:57;;;;;;;7.70;5.50;;;;;;;14.14;57.60;101275.01;117704;1182;21844;-86
2022/10/08 05:56:25;;;;;;;8.30;5.60;;;;;;;14.22;57.52;101277.02;117726;1182;21886;-88
2022/10/08 05:58:52;;;;;;;10.50;6.60;;;;;;;14.31;57.57;101274.44;117790;1185;21881;-87
2022/10/08 06:01:27;;;;;;;9.10;5.40;;;;;;;14.38;57.46;101275.57;117786;1183;22988;-88
2022/10/08 06:03:58;;;;;;;7.80;6.10;;;;;;;14.46;57.55;101273.35;117707;1185;23429;-87
2022/10/08 06:06:35;;;;;;;8.20;5.70;;;;;;;14.55;57.54;101274.10;117679;1184;23459;-85
2022/10/08 06:09:02;;;;;;;7.60;5.60;;;;;;;14.63;57.59;101270.98;117797;1183;23638;-87
2022/10/08 06:11:31;;;;;;;8.40;5.90;;;;;;;14.67;57.67;101271.45;117726;1184;23462;-86
2022/10/08 06:13:59;;;;;;;8.50;6.50;;;;;;;14.78;57.63;101272.20;117747;1185;23473;-86
2022/10/08 06:16:26;;;;;;;7.60;6.20;;;;;;;14.88;57.62;101267.45;117724;1185;21985;-87
